sensor_id;sensor_type;location;lat;lon;timestamp;P1;durP1;ratioP1;P2;durP2;ratioP2
5465;SDS011;2755;50.728;7.108;2023-06-14T00:00:14;198.63;;;163.00;;
5465;SDS011;2755;50.728;7.108;2023-06-14T00:02:41;188.60;;;144.73;;
5465;SDS011;2755;50.728;7.108;2023-06-14T00:05:07;182.17;;;134.00;;
5465;SDS011;2755;50.728;7.108;2023-06-14T00:07:37;178.97;;;129.57;;
5465;SDS011;2755;50.728;7.108;2023-06-14T00:10:07;175.37;;;121.47;;
5465;SDS011;2755;50.728;7.108;2023-06-14T00:12:33;175.40;;;121.63;;
5465;SDS011;2755;50.728;7.108;2023-06-14T00:14:59;180.13;;;129.90;;
5465;SDS011;2755;50.728;7.108;2023-06-14T00:17:26;184.97;;;136.73;;
5465;SDS011;2755;50.728;7.108;2023-06-14T00:19:55;188.60;;;144.30;;
5465;SDS011;2755;50.728;7.108;2023-06-14T00:22:22;190.97;;;146.27;;
5465;SDS011;2755;50.728;7.108;2023-06-14T00:24:49;195.77;;;155.60;;
5465;SDS011;2755;50.728;7.108;2023-06-14T00:27:15;193.33;;;155.83;;
5465;SDS011;2755;50.728;7.108;2023-06-14T00:29:41;200.57;;;167.17;;
5465;SDS011;2755;50.728;7.108;2023-06-14T00:32:07;204.03;;;173.00;;
5465;SDS011;2755;50.728;7.108;2023-06-14T00:34:33;196.27;;;158.33;;
5465;SDS011;2755;50.728;7.108;2023-06-14T00:36:59;198.83;;;162.03;;
5465;SDS011;2755;50.728;7.108;2023-06-14T00:39:25;203.73;;;168.70;;
5465;SDS011;2755;50.728;7.108;2023-06-14T00:41:50;196.50;;;159.90;;
5465;SDS011;2755;50.728;7.108;2023-06-14T00:44:16;196.70;;;160.13;;
5465;SDS011;2755;50.728;7.108;2023-06-14T00:46:42;195.23;;;153.70;;
5465;SDS011;2755;50.728;7.108;2023-06-14T00:49:09;187.30;;;145.30;;
5465;SDS011;2755;50.728;7.108;2023-06-14T00:51:35;188.43;;;145.03;;
5465;SDS011;2755;50.728;7.108;2023-06-14T00:54:02;186.17;;;140.23;;
5465;SDS011;2755;50.728;7.108;2023-06-14T00:56:28;184.40;;;138.10;;
5465;SDS011;2755;50.728;7.108;2023-06-14T00:58:55;187.50;;;143.97;;
5465;SDS011;2755;50.728;7.108;2023-06-14T01:01:21;187.40;;;144.77;;
5465;SDS011;2755;50.728;7.108;2023-06-14T01:03:47;183.27;;;137.43;;
5465;SDS011;2755;50.728;7.108;2023-06-14T01:11:38;178.47;;;133.63;;
5465;SDS011;2755;50.728;7.108;2023-06-14T01:14:06;177.93;;;132.80;;
5465;SDS011;2755;50.728;7.108;2023-06-14T01:16:34;183.33;;;142.27;;
5465;SDS011;2755;50.728;7.108;2023-06-14T01:19:01;180.20;;;138.27;;
5465;SDS011;2755;50.728;7.108;2023-06-14T01:21:27;177.53;;;132.63;;
5465;SDS011;2755;50.728;7.108;2023-06-14T01:23:54;175.47;;;128.30;;
5465;SDS011;2755;50.728;7.108;2023-06-14T01:26:21;170.27;;;120.13;;
5465;SDS011;2755;50.728;7.108;2023-06-14T01:28:47;162.53;;;106.23;;
5465;SDS011;2755;50.728;7.108;2023-06-14T01:31:16;160.13;;;101.07;;
5465;SDS011;2755;50.728;7.108;2023-06-14T01:33:44;158.17;;;98.77;;
5465;SDS011;2755;50.728;7.108;2023-06-14T01:36:11;157.27;;;95.93;;
5465;SDS011;2755;50.728;7.108;2023-06-14T01:38:38;155.47;;;92.67;;
5465;SDS011;2755;50.728;7.108;2023-06-14T01:41:04;160.33;;;101.73;;
5465;SDS011;2755;50.728;7.108;2023-06-14T01:43:31;169.63;;;114.03;;
5465;SDS011;2755;50.728;7.108;2023-06-14T01:45:58;172.57;;;120.07;;
5465;SDS011;2755;50.728;7.108;2023-06-14T01:48:25;177.60;;;130.83;;
5465;SDS011;2755;50.728;7.108;2023-06-14T01:50:52;180.03;;;138.80;;
5465;SDS011;2755;50.728;7.108;2023-06-14T01:53:17;175.47;;;130.03;;
5465;SDS011;2755;50.728;7.108;2023-06-14T01:55:43;175.97;;;130.77;;
5465;SDS011;2755;50.728;7.108;2023-06-14T01:58:10;171.57;;;122.40;;
5465;SDS011;2755;50.728;7.108;2023-06-14T02:00:36;169.97;;;107.03;;
5465;SDS011;2755;50.728;7.108;2023-06-14T02:03:01;170.90;;;116.27;;
5465;SDS011;2755;50.728;7.108;2023-06-14T02:05:29;170.17;;;115.43;;
5465;SDS011;2755;50.728;7.108;2023-06-14T02:07:55;169.40;;;112.53;;
5465;SDS011;2755;50.728;7.108;2023-06-14T02:10:20;171.23;;;117.07;;
5465;SDS011;2755;50.728;7.108;2023-06-14T02:12:46;169.03;;;113.13;;
5465;SDS011;2755;50.728;7.108;2023-06-14T02:15:12;168.03;;;110.70;;
5465;SDS011;2755;50.728;7.108;2023-06-14T02:17:41;162.23;;;102.93;;
5465;SDS011;2755;50.728;7.108;2023-06-14T02:20:08;168.03;;;108.07;;
5465;SDS011;2755;50.728;7.108;2023-06-14T02:22:34;166.10;;;108.30;;
5465;SDS011;2755;50.728;7.108;2023-06-14T02:25:00;171.57;;;118.40;;
5465;SDS011;2755;50.728;7.108;2023-06-14T02:27:25;170.37;;;116.33;;
5465;SDS011;2755;50.728;7.108;2023-06-14T02:29:51;177.80;;;126.30;;
5465;SDS011;2755;50.728;7.108;2023-06-14T02:32:16;173.30;;;120.37;;
5465;SDS011;2755;50.728;7.108;2023-06-14T02:34:42;180.93;;;133.70;;
5465;SDS011;2755;50.728;7.108;2023-06-14T02:37:08;181.87;;;135.07;;
5465;SDS011;2755;50.728;7.108;2023-06-14T02:39:34;185.00;;;137.20;;
5465;SDS011;2755;50.728;7.108;2023-06-14T02:42:01;193.73;;;151.20;;
5465;SDS011;2755;50.728;7.108;2023-06-14T02:44:26;190.13;;;142.43;;
5465;SDS011;2755;50.728;7.108;2023-06-14T02:46:55;189.53;;;141.63;;
5465;SDS011;2755;50.728;7.108;2023-06-14T02:49:21;195.97;;;154.23;;
5465;SDS011;2755;50.728;7.108;2023-06-14T02:51:47;196.50;;;153.73;;
5465;SDS011;2755;50.728;7.108;2023-06-14T02:54:12;195.07;;;149.17;;
5465;SDS011;2755;50.728;7.108;2023-06-14T02:56:38;190.03;;;144.00;;
5465;SDS011;2755;50.728;7.108;2023-06-14T02:59:04;192.03;;;144.77;;
5465;SDS011;2755;50.728;7.108;2023-06-14T03:01:30;187.00;;;134.27;;
5465;SDS011;2755;50.728;7.108;2023-06-14T03:04:04;181.83;;;130.13;;
5465;SDS011;2755;50.728;7.108;2023-06-14T03:06:29;181.43;;;126.13;;
5465;SDS011;2755;50.728;7.108;2023-06-14T03:08:56;180.40;;;123.73;;
5465;SDS011;2755;50.728;7.108;2023-06-14T03:11:25;178.93;;;121.03;;
5465;SDS011;2755;50.728;7.108;2023-06-14T03:13:51;187.27;;;130.83;;
5465;SDS011;2755;50.728;7.108;2023-06-14T03:16:17;185.33;;;130.53;;
5465;SDS011;2755;50.728;7.108;2023-06-14T03:18:47;191.67;;;140.03;;
5465;SDS011;2755;50.728;7.108;2023-06-14T03:21:16;197.53;;;146.37;;
5465;SDS011;2755;50.728;7.108;2023-06-14T03:23:42;200.43;;;153.10;;
5465;SDS011;2755;50.728;7.108;2023-06-14T03:26:09;202.97;;;154.07;;
5465;SDS011;2755;50.728;7.108;2023-06-14T03:28:37;191.23;;;141.00;;
5465;SDS011;2755;50.728;7.108;2023-06-14T03:31:03;188.93;;;137.20;;
5465;SDS011;2755;50.728;7.108;2023-06-14T03:33:29;182.27;;;132.20;;
5465;SDS011;2755;50.728;7.108;2023-06-14T03:35:55;181.37;;;131.37;;
5465;SDS011;2755;50.728;7.108;2023-06-14T03:38:21;173.27;;;120.27;;
5465;SDS011;2755;50.728;7.108;2023-06-14T03:40:47;178.07;;;128.87;;
5465;SDS011;2755;50.728;7.108;2023-06-14T03:43:13;172.47;;;119.40;;
5465;SDS011;2755;50.728;7.108;2023-06-14T03:45:39;173.53;;;120.77;;
5465;SDS011;2755;50.728;7.108;2023-06-14T03:48:05;170.57;;;118.50;;
5465;SDS011;2755;50.728;7.108;2023-06-14T03:50:32;170.67;;;119.57;;
5465;SDS011;2755;50.728;7.108;2023-06-14T03:52:58;162.73;;;104.97;;
5465;SDS011;2755;50.728;7.108;2023-06-14T03:55:24;170.77;;;120.47;;
5465;SDS011;2755;50.728;7.108;2023-06-14T03:57:50;166.20;;;112.13;;
5465;SDS011;2755;50.728;7.108;2023-06-14T04:00:17;170.77;;;122.37;;
5465;SDS011;2755;50.728;7.108;2023-06-14T04:02:43;170.23;;;121.90;;
5465;SDS011;2755;50.728;7.108;2023-06-14T04:05:09;173.77;;;127.80;;
5465;SDS011;2755;50.728;7.108;2023-06-14T04:07:35;183.60;;;147.40;;
5465;SDS011;2755;50.728;7.108;2023-06-14T04:10:11;185.53;;;147.27;;
5465;SDS011;2755;50.728;7.108;2023-06-14T04:12:37;184.77;;;148.43;;
5465;SDS011;2755;50.728;7.108;2023-06-14T04:15:03;188.03;;;152.63;;
5465;SDS011;2755;50.728;7.108;2023-06-14T04:17:31;190.80;;;159.07;;
5465;SDS011;2755;50.728;7.108;2023-06-14T04:19:58;191.97;;;162.13;;
5465;SDS011;2755;50.728;7.108;2023-06-14T04:22:25;190.47;;;162.27;;
5465;SDS011;2755;50.728;7.108;2023-06-14T04:24:53;198.10;;;168.57;;
5465;SDS011;2755;50.728;7.108;2023-06-14T04:27:21;188.47;;;157.30;;
5465;SDS011;2755;50.728;7.108;2023-06-14T04:29:51;194.33;;;166.47;;
5465;SDS011;2755;50.728;7.108;2023-06-14T04:32:25;194.17;;;166.33;;
5465;SDS011;2755;50.728;7.108;2023-06-14T04:34:53;189.73;;;155.60;;
5465;SDS011;2755;50.728;7.108;2023-06-14T04:37:19;180.57;;;144.17;;
5465;SDS011;2755;50.728;7.108;2023-06-14T04:39:46;180.40;;;131.63;;
5465;SDS011;2755;50.728;7.108;2023-06-14T04:42:12;174.33;;;129.87;;
5465;SDS011;2755;50.728;7.108;2023-06-14T04:44:40;178.50;;;136.33;;
5465;SDS011;2755;50.728;7.108;2023-06-14T04:47:06;173.50;;;127.13;;
5465;SDS011;2755;50.728;7.108;2023-06-14T04:49:32;175.57;;;130.63;;
5465;SDS011;2755;50.728;7.108;2023-06-14T04:51:59;169.00;;;118.17;;
5465;SDS011;2755;50.728;7.108;2023-06-14T04:54:26;168.33;;;118.30;;
5465;SDS011;2755;50.728;7.108;2023-06-14T04:56:52;168.43;;;114.93;;
5465;SDS011;2755;50.728;7.108;2023-06-14T04:59:20;166.57;;;108.60;;
5465;SDS011;2755;50.728;7.108;2023-06-14T05:01:48;171.50;;;121.77;;
5465;SDS011;2755;50.728;7.108;2023-06-14T05:04:14;177.47;;;127.73;;
5465;SDS011;2755;50.728;7.108;2023-06-14T05:06:43;174.23;;;122.10;;
5465;SDS011;2755;50.728;7.108;2023-06-14T05:09:15;170.87;;;120.13;;
5465;SDS011;2755;50.728;7.108;2023-06-14T05:11:44;184.20;;;143.63;;
5465;SDS011;2755;50.728;7.108;2023-06-14T05:14:11;191.93;;;159.10;;
5465;SDS011;2755;50.728;7.108;2023-06-14T05:16:37;186.17;;;147.00;;
5465;SDS011;2755;50.728;7.108;2023-06-14T05:19:04;167.17;;;114.93;;
5465;SDS011;2755;50.728;7.108;2023-06-14T05:21:30;165.73;;;111.83;;
5465;SDS011;2755;50.728;7.108;2023-06-14T05:23:56;170.90;;;120.90;;
5465;SDS011;2755;50.728;7.108;2023-06-14T05:26:22;199.87;;;174.87;;
5465;SDS011;2755;50.728;7.108;2023-06-14T05:28:54;203.93;;;179.97;;
5465;SDS011;2755;50.728;7.108;2023-06-14T05:31:21;196.53;;;162.20;;
5465;SDS011;2755;50.728;7.108;2023-06-14T05:33:48;188.13;;;144.00;;
5465;SDS011;2755;50.728;7.108;2023-06-14T05:36:13;165.17;;;103.87;;
5465;SDS011;2755;50.728;7.108;2023-06-14T05:38:39;176.97;;;129.50;;
5465;SDS011;2755;50.728;7.108;2023-06-14T05:41:05;174.40;;;126.53;;
5465;SDS011;2755;50.728;7.108;2023-06-14T05:43:30;178.10;;;131.73;;
5465;SDS011;2755;50.728;7.108;2023-06-14T05:45:56;178.07;;;129.47;;
5465;SDS011;2755;50.728;7.108;2023-06-14T05:48:22;183.67;;;131.60;;
5465;SDS011;2755;50.728;7.108;2023-06-14T05:50:48;190.43;;;135.87;;
5465;SDS011;2755;50.728;7.108;2023-06-14T05:53:14;195.33;;;152.57;;
5465;SDS011;2755;50.728;7.108;2023-06-14T05:55:40;198.17;;;160.47;;
5465;SDS011;2755;50.728;7.108;2023-06-14T05:58:05;202.50;;;170.27;;
5465;SDS011;2755;50.728;7.108;2023-06-14T06:00:31;211.67;;;184.13;;
5465;SDS011;2755;50.728;7.108;2023-06-14T06:02:58;229.73;;;205.00;;
5465;SDS011;2755;50.728;7.108;2023-06-14T06:05:24;237.83;;;212.63;;
5465;SDS011;2755;50.728;7.108;2023-06-14T06:07:50;242.10;;;216.63;;
5465;SDS011;2755;50.728;7.108;2023-06-14T06:10:16;225.00;;;200.43;;
5465;SDS011;2755;50.728;7.108;2023-06-14T06:12:42;228.27;;;203.50;;
5465;SDS011;2755;50.728;7.108;2023-06-14T06:15:08;221.20;;;196.80;;
5465;SDS011;2755;50.728;7.108;2023-06-14T06:17:37;215.43;;;187.13;;
5465;SDS011;2755;50.728;7.108;2023-06-14T06:20:04;218.67;;;183.03;;
5465;SDS011;2755;50.728;7.108;2023-06-14T06:22:33;224.23;;;182.30;;
5465;SDS011;2755;50.728;7.108;2023-06-14T06:25:09;219.20;;;174.13;;
5465;SDS011;2755;50.728;7.108;2023-06-14T06:27:35;208.43;;;161.20;;
5465;SDS011;2755;50.728;7.108;2023-06-14T06:30:02;207.23;;;164.00;;
5465;SDS011;2755;50.728;7.108;2023-06-14T06:32:28;198.53;;;155.50;;
5465;SDS011;2755;50.728;7.108;2023-06-14T06:34:55;194.47;;;147.30;;
5465;SDS011;2755;50.728;7.108;2023-06-14T06:37:20;191.43;;;146.87;;
5465;SDS011;2755;50.728;7.108;2023-06-14T06:39:52;181.83;;;136.60;;
5465;SDS011;2755;50.728;7.108;2023-06-14T06:42:19;193.07;;;159.73;;
5465;SDS011;2755;50.728;7.108;2023-06-14T06:44:45;192.73;;;157.20;;
5465;SDS011;2755;50.728;7.108;2023-06-14T06:47:10;193.47;;;153.27;;
5465;SDS011;2755;50.728;7.108;2023-06-14T06:49:36;199.73;;;164.97;;
5465;SDS011;2755;50.728;7.108;2023-06-14T06:52:03;202.73;;;173.77;;
5465;SDS011;2755;50.728;7.108;2023-06-14T06:54:30;197.73;;;163.23;;
5465;SDS011;2755;50.728;7.108;2023-06-14T06:56:56;197.87;;;164.57;;
5465;SDS011;2755;50.728;7.108;2023-06-14T06:59:22;202.30;;;170.53;;
5465;SDS011;2755;50.728;7.108;2023-06-14T07:01:48;204.67;;;172.10;;
5465;SDS011;2755;50.728;7.108;2023-06-14T07:04:14;187.47;;;139.07;;
5465;SDS011;2755;50.728;7.108;2023-06-14T07:06:41;180.63;;;123.50;;
5465;SDS011;2755;50.728;7.108;2023-06-14T07:09:07;180.07;;;126.63;;
5465;SDS011;2755;50.728;7.108;2023-06-14T07:11:37;180.80;;;125.90;;
5465;SDS011;2755;50.728;7.108;2023-06-14T07:14:06;174.70;;;118.27;;
5465;SDS011;2755;50.728;7.108;2023-06-14T07:16:32;168.93;;;112.07;;
5465;SDS011;2755;50.728;7.108;2023-06-14T07:18:58;171.03;;;116.83;;
5465;SDS011;2755;50.728;7.108;2023-06-14T07:21:25;176.07;;;123.47;;
5465;SDS011;2755;50.728;7.108;2023-06-14T07:23:55;179.43;;;135.53;;
5465;SDS011;2755;50.728;7.108;2023-06-14T07:26:21;193.23;;;160.67;;
5465;SDS011;2755;50.728;7.108;2023-06-14T07:28:47;192.97;;;155.83;;
5465;SDS011;2755;50.728;7.108;2023-06-14T07:31:14;174.27;;;123.07;;
5465;SDS011;2755;50.728;7.108;2023-06-14T07:33:41;176.67;;;122.73;;
5465;SDS011;2755;50.728;7.108;2023-06-14T07:36:07;172.17;;;121.57;;
5465;SDS011;2755;50.728;7.108;2023-06-14T07:38:33;171.13;;;121.27;;
5465;SDS011;2755;50.728;7.108;2023-06-14T07:41:00;200.35;;;158.98;;
5465;SDS011;2755;50.728;7.108;2023-06-14T07:43:26;167.87;;;114.63;;
5465;SDS011;2755;50.728;7.108;2023-06-14T07:45:51;219.10;;;188.60;;
5465;SDS011;2755;50.728;7.108;2023-06-14T07:48:18;174.53;;;122.37;;
5465;SDS011;2755;50.728;7.108;2023-06-14T07:50:43;193.00;;;143.80;;
5465;SDS011;2755;50.728;7.108;2023-06-14T07:53:09;205.97;;;164.07;;
5465;SDS011;2755;50.728;7.108;2023-06-14T07:55:35;206.17;;;165.60;;
5465;SDS011;2755;50.728;7.108;2023-06-14T07:58:04;211.60;;;182.33;;
5465;SDS011;2755;50.728;7.108;2023-06-14T08:00:33;213.07;;;187.23;;
5465;SDS011;2755;50.728;7.108;2023-06-14T08:02:58;206.90;;;180.33;;
5465;SDS011;2755;50.728;7.108;2023-06-14T08:05:27;216.87;;;193.43;;
5465;SDS011;2755;50.728;7.108;2023-06-14T08:07:54;225.90;;;202.17;;
5465;SDS011;2755;50.728;7.108;2023-06-14T08:10:19;228.50;;;204.30;;
5465;SDS011;2755;50.728;7.108;2023-06-14T08:12:46;226.50;;;202.57;;
5465;SDS011;2755;50.728;7.108;2023-06-14T08:15:11;206.63;;;180.53;;
5465;SDS011;2755;50.728;7.108;2023-06-14T08:17:37;226.53;;;202.23;;
5465;SDS011;2755;50.728;7.108;2023-06-14T08:20:04;217.90;;;194.10;;
5465;SDS011;2755;50.728;7.108;2023-06-14T08:22:30;205.37;;;174.93;;
5465;SDS011;2755;50.728;7.108;2023-06-14T08:24:59;196.03;;;153.37;;
5465;SDS011;2755;50.728;7.108;2023-06-14T08:27:29;189.87;;;144.37;;
5465;SDS011;2755;50.728;7.108;2023-06-14T08:29:56;183.57;;;136.20;;
5465;SDS011;2755;50.728;7.108;2023-06-14T08:32:22;171.77;;;119.23;;
5465;SDS011;2755;50.728;7.108;2023-06-14T08:34:48;178.50;;;130.00;;
5465;SDS011;2755;50.728;7.108;2023-06-14T08:37:14;178.27;;;131.87;;
5465;SDS011;2755;50.728;7.108;2023-06-14T08:39:40;180.37;;;133.13;;
5465;SDS011;2755;50.728;7.108;2023-06-14T08:42:06;177.63;;;126.07;;
5465;SDS011;2755;50.728;7.108;2023-06-14T08:44:33;177.93;;;127.27;;
5465;SDS011;2755;50.728;7.108;2023-06-14T08:46:59;182.33;;;136.97;;
5465;SDS011;2755;50.728;7.108;2023-06-14T08:49:25;182.73;;;137.27;;
5465;SDS011;2755;50.728;7.108;2023-06-14T08:51:58;188.23;;;142.63;;
5465;SDS011;2755;50.728;7.108;2023-06-14T08:54:25;197.87;;;158.40;;
5465;SDS011;2755;50.728;7.108;2023-06-14T08:56:55;215.30;;;183.73;;
5465;SDS011;2755;50.728;7.108;2023-06-14T08:59:23;194.37;;;153.73;;
5465;SDS011;2755;50.728;7.108;2023-06-14T09:01:50;185.13;;;137.57;;
5465;SDS011;2755;50.728;7.108;2023-06-14T09:04:17;188.10;;;144.70;;
5465;SDS011;2755;50.728;7.108;2023-06-14T09:06:44;190.73;;;149.00;;
5465;SDS011;2755;50.728;7.108;2023-06-14T09:09:10;193.73;;;154.70;;
5465;SDS011;2755;50.728;7.108;2023-06-14T09:11:37;188.07;;;142.70;;
5465;SDS011;2755;50.728;7.108;2023-06-14T09:14:03;185.27;;;134.53;;
5465;SDS011;2755;50.728;7.108;2023-06-14T09:16:31;180.83;;;127.03;;
5465;SDS011;2755;50.728;7.108;2023-06-14T09:18:57;172.23;;;117.57;;
5465;SDS011;2755;50.728;7.108;2023-06-14T09:21:23;172.03;;;114.33;;
5465;SDS011;2755;50.728;7.108;2023-06-14T09:23:49;181.23;;;130.67;;
5465;SDS011;2755;50.728;7.108;2023-06-14T09:26:15;184.77;;;137.03;;
5465;SDS011;2755;50.728;7.108;2023-06-14T09:28:43;177.47;;;124.73;;
5465;SDS011;2755;50.728;7.108;2023-06-14T09:31:10;180.13;;;130.90;;
5465;SDS011;2755;50.728;7.108;2023-06-14T09:33:44;173.40;;;119.20;;
5465;SDS011;2755;50.728;7.108;2023-06-14T09:36:16;171.07;;;117.20;;
5465;SDS011;2755;50.728;7.108;2023-06-14T09:38:56;165.97;;;106.43;;
5465;SDS011;2755;50.728;7.108;2023-06-14T09:41:35;159.80;;;97.27;;
5465;SDS011;2755;50.728;7.108;2023-06-14T09:44:05;166.47;;;106.97;;
5465;SDS011;2755;50.728;7.108;2023-06-14T09:46:32;161.57;;;101.37;;
5465;SDS011;2755;50.728;7.108;2023-06-14T09:48:58;160.70;;;97.87;;
5465;SDS011;2755;50.728;7.108;2023-06-14T09:51:25;172.47;;;117.60;;
5465;SDS011;2755;50.728;7.108;2023-06-14T09:53:52;172.53;;;121.37;;
5465;SDS011;2755;50.728;7.108;2023-06-14T09:56:22;170.80;;;117.20;;
5465;SDS011;2755;50.728;7.108;2023-06-14T09:58:50;176.47;;;123.97;;
5465;SDS011;2755;50.728;7.108;2023-06-14T10:01:24;170.93;;;116.67;;
5465;SDS011;2755;50.728;7.108;2023-06-14T10:03:54;159.47;;;96.93;;
5465;SDS011;2755;50.728;7.108;2023-06-14T10:06:22;160.53;;;94.00;;
5465;SDS011;2755;50.728;7.108;2023-06-14T10:08:49;147.27;;;72.00;;
5465;SDS011;2755;50.728;7.108;2023-06-14T10:11:21;143.37;;;65.60;;
5465;SDS011;2755;50.728;7.108;2023-06-14T10:13:48;155.00;;;86.63;;
5465;SDS011;2755;50.728;7.108;2023-06-14T10:16:16;161.77;;;99.93;;
5465;SDS011;2755;50.728;7.108;2023-06-14T10:21:20;169.97;;;115.87;;
5465;SDS011;2755;50.728;7.108;2023-06-14T10:24:08;186.67;;;140.37;;
5465;SDS011;2755;50.728;7.108;2023-06-14T10:26:40;187.73;;;140.83;;
5465;SDS011;2755;50.728;7.108;2023-06-14T10:29:15;182.13;;;132.03;;
5465;SDS011;2755;50.728;7.108;2023-06-14T10:31:44;177.97;;;126.13;;
5465;SDS011;2755;50.728;7.108;2023-06-14T10:34:12;171.50;;;117.27;;
5465;SDS011;2755;50.728;7.108;2023-06-14T10:36:50;153.77;;;86.77;;
5465;SDS011;2755;50.728;7.108;2023-06-14T10:39:51;139.13;;;57.47;;
5465;SDS011;2755;50.728;7.108;2023-06-14T10:42:18;140.03;;;55.77;;
5465;SDS011;2755;50.728;7.108;2023-06-14T10:44:45;144.17;;;66.73;;
5465;SDS011;2755;50.728;7.108;2023-06-14T10:49:53;149.27;;;78.17;;
5465;SDS011;2755;50.728;7.108;2023-06-14T10:52:21;156.27;;;92.33;;
5465;SDS011;2755;50.728;7.108;2023-06-14T10:57:51;137.13;;;55.20;;
5465;SDS011;2755;50.728;7.108;2023-06-14T11:00:21;138.47;;;57.97;;
5465;SDS011;2755;50.728;7.108;2023-06-14T11:05:50;148.43;;;76.43;;
5465;SDS011;2755;50.728;7.108;2023-06-14T11:10:58;134.87;;;52.77;;
5465;SDS011;2755;50.728;7.108;2023-06-14T11:13:25;136.33;;;53.17;;
5465;SDS011;2755;50.728;7.108;2023-06-14T11:15:51;138.43;;;54.93;;
5465;SDS011;2755;50.728;7.108;2023-06-14T11:18:22;142.33;;;63.47;;
5465;SDS011;2755;50.728;7.108;2023-06-14T11:20:54;143.37;;;66.23;;
5465;SDS011;2755;50.728;7.108;2023-06-14T11:23:21;154.97;;;87.13;;
5465;SDS011;2755;50.728;7.108;2023-06-14T11:25:50;184.10;;;137.90;;
5465;SDS011;2755;50.728;7.108;2023-06-14T11:28:16;190.37;;;151.23;;
5465;SDS011;2755;50.728;7.108;2023-06-14T11:30:42;163.97;;;105.30;;
5465;SDS011;2755;50.728;7.108;2023-06-14T11:33:09;151.40;;;82.13;;
5465;SDS011;2755;50.728;7.108;2023-06-14T11:35:36;144.00;;;67.17;;
5465;SDS011;2755;50.728;7.108;2023-06-14T11:38:02;151.03;;;78.57;;
5465;SDS011;2755;50.728;7.108;2023-06-14T11:40:28;152.53;;;85.37;;
5465;SDS011;2755;50.728;7.108;2023-06-14T11:42:58;154.53;;;86.13;;
5465;SDS011;2755;50.728;7.108;2023-06-14T11:45:25;154.97;;;84.37;;
5465;SDS011;2755;50.728;7.108;2023-06-14T11:47:51;144.20;;;66.50;;
5465;SDS011;2755;50.728;7.108;2023-06-14T11:50:19;145.50;;;68.77;;
5465;SDS011;2755;50.728;7.108;2023-06-14T11:52:44;149.77;;;77.33;;
5465;SDS011;2755;50.728;7.108;2023-06-14T11:55:11;144.40;;;66.60;;
5465;SDS011;2755;50.728;7.108;2023-06-14T11:57:37;154.50;;;88.30;;
5465;SDS011;2755;50.728;7.108;2023-06-14T12:00:04;173.20;;;119.63;;
5465;SDS011;2755;50.728;7.108;2023-06-14T12:02:40;186.03;;;143.47;;
5465;SDS011;2755;50.728;7.108;2023-06-14T12:05:07;175.17;;;125.63;;
5465;SDS011;2755;50.728;7.108;2023-06-14T12:07:35;182.37;;;135.50;;
5465;SDS011;2755;50.728;7.108;2023-06-14T12:12:30;164.50;;;104.23;;
5465;SDS011;2755;50.728;7.108;2023-06-14T12:14:56;165.43;;;107.90;;
5465;SDS011;2755;50.728;7.108;2023-06-14T12:17:21;169.00;;;114.00;;
5465;SDS011;2755;50.728;7.108;2023-06-14T12:19:48;175.73;;;122.70;;
5465;SDS011;2755;50.728;7.108;2023-06-14T12:22:15;178.70;;;120.03;;
5465;SDS011;2755;50.728;7.108;2023-06-14T12:24:44;172.90;;;119.20;;
5465;SDS011;2755;50.728;7.108;2023-06-14T12:27:10;180.23;;;131.10;;
5465;SDS011;2755;50.728;7.108;2023-06-14T12:29:40;192.67;;;149.67;;
5465;SDS011;2755;50.728;7.108;2023-06-14T12:32:06;205.73;;;171.00;;
5465;SDS011;2755;50.728;7.108;2023-06-14T12:34:32;198.87;;;159.30;;
5465;SDS011;2755;50.728;7.108;2023-06-14T12:36:58;222.37;;;198.10;;
5465;SDS011;2755;50.728;7.108;2023-06-14T12:39:24;222.40;;;198.03;;
5465;SDS011;2755;50.728;7.108;2023-06-14T12:41:50;239.10;;;213.50;;
5465;SDS011;2755;50.728;7.108;2023-06-14T12:44:16;237.37;;;212.10;;
5465;SDS011;2755;50.728;7.108;2023-06-14T12:46:42;226.57;;;201.87;;
5465;SDS011;2755;50.728;7.108;2023-06-14T12:49:09;248.50;;;222.40;;
5465;SDS011;2755;50.728;7.108;2023-06-14T12:51:36;246.63;;;220.00;;
5465;SDS011;2755;50.728;7.108;2023-06-14T12:54:02;235.93;;;206.17;;
5465;SDS011;2755;50.728;7.108;2023-06-14T12:56:28;260.77;;;232.37;;
5465;SDS011;2755;50.728;7.108;2023-06-14T12:58:54;293.20;;;263.20;;
5465;SDS011;2755;50.728;7.108;2023-06-14T13:01:20;227.07;;;197.07;;
5465;SDS011;2755;50.728;7.108;2023-06-14T13:03:46;216.57;;;181.43;;
5465;SDS011;2755;50.728;7.108;2023-06-14T13:06:13;213.53;;;182.27;;
5465;SDS011;2755;50.728;7.108;2023-06-14T13:08:38;211.57;;;180.07;;
5465;SDS011;2755;50.728;7.108;2023-06-14T13:11:04;211.07;;;177.60;;
5465;SDS011;2755;50.728;7.108;2023-06-14T13:13:29;228.87;;;203.67;;
5465;SDS011;2755;50.728;7.108;2023-06-14T13:15:55;256.90;;;229.80;;
5465;SDS011;2755;50.728;7.108;2023-06-14T13:18:21;244.73;;;218.57;;
5465;SDS011;2755;50.728;7.108;2023-06-14T13:20:47;213.70;;;184.80;;
5465;SDS011;2755;50.728;7.108;2023-06-14T13:23:12;211.73;;;179.53;;
5465;SDS011;2755;50.728;7.108;2023-06-14T13:25:38;184.73;;;134.03;;
5465;SDS011;2755;50.728;7.108;2023-06-14T13:28:04;183.47;;;135.17;;
5465;SDS011;2755;50.728;7.108;2023-06-14T13:30:30;172.73;;;119.57;;
5465;SDS011;2755;50.728;7.108;2023-06-14T13:32:56;185.77;;;143.60;;
5465;SDS011;2755;50.728;7.108;2023-06-14T13:35:22;194.37;;;162.47;;
5465;SDS011;2755;50.728;7.108;2023-06-14T13:37:48;196.30;;;164.20;;
5465;SDS011;2755;50.728;7.108;2023-06-14T13:40:14;165.90;;;104.77;;
5465;SDS011;2755;50.728;7.108;2023-06-14T13:42:40;158.67;;;96.27;;
5465;SDS011;2755;50.728;7.108;2023-06-14T13:45:06;185.20;;;133.17;;
5465;SDS011;2755;50.728;7.108;2023-06-14T13:47:33;201.53;;;173.77;;
5465;SDS011;2755;50.728;7.108;2023-06-14T13:49:58;219.97;;;196.17;;
5465;SDS011;2755;50.728;7.108;2023-06-14T13:52:24;181.37;;;132.43;;
5465;SDS011;2755;50.728;7.108;2023-06-14T13:54:51;173.27;;;120.67;;
5465;SDS011;2755;50.728;7.108;2023-06-14T13:57:17;167.00;;;106.87;;
5465;SDS011;2755;50.728;7.108;2023-06-14T13:59:43;158.83;;;95.70;;
5465;SDS011;2755;50.728;7.108;2023-06-14T14:02:10;158.57;;;92.37;;
5465;SDS011;2755;50.728;7.108;2023-06-14T14:04:36;163.33;;;100.63;;
5465;SDS011;2755;50.728;7.108;2023-06-14T14:07:03;175.43;;;122.50;;
5465;SDS011;2755;50.728;7.108;2023-06-14T14:09:29;170.40;;;110.13;;
5465;SDS011;2755;50.728;7.108;2023-06-14T14:11:55;164.63;;;102.30;;
5465;SDS011;2755;50.728;7.108;2023-06-14T14:14:21;162.97;;;99.27;;
5465;SDS011;2755;50.728;7.108;2023-06-14T14:16:48;164.23;;;104.20;;
5465;SDS011;2755;50.728;7.108;2023-06-14T14:19:16;171.67;;;115.33;;
5465;SDS011;2755;50.728;7.108;2023-06-14T14:21:43;177.30;;;127.50;;
5465;SDS011;2755;50.728;7.108;2023-06-14T14:24:09;176.97;;;126.50;;
5465;SDS011;2755;50.728;7.108;2023-06-14T14:26:35;169.90;;;113.07;;
5465;SDS011;2755;50.728;7.108;2023-06-14T14:29:00;167.53;;;107.30;;
5465;SDS011;2755;50.728;7.108;2023-06-14T14:31:27;171.33;;;115.37;;
5465;SDS011;2755;50.728;7.108;2023-06-14T14:33:53;193.67;;;155.30;;
5465;SDS011;2755;50.728;7.108;2023-06-14T14:36:19;198.57;;;164.47;;
5465;SDS011;2755;50.728;7.108;2023-06-14T14:38:45;220.73;;;196.63;;
5465;SDS011;2755;50.728;7.108;2023-06-14T14:41:12;212.27;;;184.47;;
5465;SDS011;2755;50.728;7.108;2023-06-14T14:43:38;206.30;;;169.57;;